Hartwood, Virginia
Current Conditions -  °F | °C
As of 2:35 AM on Wednesday 26 Nov 2014 (Local Time) from KRMN Reporting Station
Light Rain Light Rain  
Wind Chill: 47°   Ceiling: 6000
Heat Index: 47°   Visibility: 10mi
Dew Point: 38°   Wind: 0mph
Humidity: 70%   Direction: NA
Pressure: 30.12"   Gusts: NA
Location:  38.4°N, 77.57°W
Report Text: KRMN 260735Z AUTO 00000KT 10SM -RA BKN060 OVC075 08/03 A3012 RMK AO2 T00830032
Loading
Personal Weather Stations






























Interactive Weather Map New forecast layout! Learn more

10-Day Weather Forecast

Advertisements
Track Severe Weather on mobile